createdAt,value
2023-01-29T00:02:46.456Z,75.07
2023-01-29T00:06:47.872Z,75.24
2023-01-29T00:10:50.668Z,75.01
2023-01-29T00:14:52.052Z,74.69
2023-01-29T00:18:53.450Z,76.34
2023-01-29T00:22:55.070Z,75.61
2023-01-29T00:26:57.891Z,74.74
2023-01-29T00:30:59.701Z,74.64
2023-01-29T00:35:01.174Z,74.63
2023-01-29T00:39:02.736Z,74.92
2023-01-29T00:43:05.973Z,75.40
2023-01-29T00:47:07.399Z,74.33
2023-01-29T00:51:09.383Z,75.92
2023-01-29T00:55:11.214Z,76.25
2023-01-29T00:59:14.116Z,75.91
2023-01-29T01:03:16.174Z,74.98
2023-01-29T01:07:17.620Z,75.42
2023-01-29T01:11:19.106Z,75.97
2023-01-29T01:15:22.448Z,75.08
2023-01-29T01:19:23.845Z,76.16
2023-01-29T01:23:25.308Z,75.79
2023-01-29T01:27:26.745Z,74.96
2023-01-29T01:31:29.768Z,75.53
2023-01-29T01:35:31.222Z,74.29
2023-01-29T01:39:32.850Z,75.35
2023-01-29T01:43:47.053Z,76.18
2023-01-29T01:47:51.543Z,75.63
2023-01-29T01:51:53.229Z,73.49
2023-01-29T01:55:57.093Z,74.20
2023-01-29T02:00:01.324Z,74.52
2023-01-29T02:04:07.152Z,74.83
2023-01-29T02:08:09.211Z,73.99
2023-01-29T02:12:12.304Z,73.65
2023-01-29T02:16:13.826Z,74.45
2023-01-29T02:20:21.537Z,74.60
2023-01-29T02:24:40.913Z,74.33
2023-01-29T02:28:47.301Z,74.38
2023-01-29T02:32:53.233Z,74.76
2023-01-29T02:37:00.397Z,73.71
2023-01-29T02:41:04.536Z,74.48
2023-01-29T02:45:10.663Z,73.41
2023-01-29T02:49:19.261Z,72.77
2023-01-29T02:53:25.397Z,73.71
2023-01-29T02:57:29.630Z,73.40
2023-01-29T03:01:35.467Z,72.29
2023-01-29T03:05:41.332Z,73.11
2023-01-29T03:09:46.598Z,73.17
2023-01-29T03:13:51.526Z,73.03
2023-01-29T03:17:56.811Z,73.13
2023-01-29T03:22:00.590Z,74.01
2023-01-29T03:26:02.127Z,74.15
2023-01-29T03:30:05.231Z,74.10
2023-01-29T03:34:09.874Z,74.85
2023-01-29T03:38:11.915Z,73.05
2023-01-29T03:42:17.770Z,72.34
2023-01-29T03:46:24.355Z,73.72
2023-01-29T03:50:33.542Z,74.25
2023-01-29T03:54:39.755Z,74.12
2023-01-29T03:58:44.123Z,73.31
2023-01-29T04:02:48.882Z,74.76
2023-01-29T04:06:52.992Z,73.68
2023-01-29T04:10:56.540Z,74.57
2023-01-29T04:14:59.596Z,74.40
2023-01-29T04:19:01.327Z,72.84
2023-01-29T04:23:06.253Z,74.31
2023-01-29T04:27:15.138Z,74.52
2023-01-29T04:31:16.996Z,75.25
2023-01-29T04:35:26.595Z,74.40
2023-01-29T04:39:32.172Z,73.83
2023-01-29T04:43:38.770Z,71.90
2023-01-29T04:47:46.949Z,73.65
2023-01-29T04:51:51.595Z,72.53
2023-01-29T04:55:57.405Z,73.25
2023-01-29T05:00:02.437Z,73.65
2023-01-29T05:04:07.557Z,73.72
2023-01-29T05:08:10.803Z,73.09
2023-01-29T05:12:16.047Z,72.64
2023-01-29T05:16:20.237Z,73.53
2023-01-29T05:20:21.916Z,73.89
2023-01-29T05:24:24.073Z,73.77
2023-01-29T05:28:26.973Z,72.37
2023-01-29T05:32:28.419Z,71.30
2023-01-29T05:36:30.186Z,72.51
2023-01-29T05:40:31.667Z,71.44
2023-01-29T05:44:34.460Z,72.01
2023-01-29T05:48:35.847Z,71.56
2023-01-29T05:52:37.546Z,71.87
2023-01-29T05:56:39.231Z,72.35
2023-01-29T06:00:42.414Z,72.20
2023-01-29T06:04:44.051Z,71.62
2023-01-29T06:08:45.538Z,72.12
2023-01-29T06:12:46.983Z,72.73
2023-01-29T06:16:50.005Z,72.27
2023-01-29T06:20:51.476Z,72.17
2023-01-29T06:24:52.915Z,71.70
2023-01-29T06:28:54.685Z,71.79
2023-01-29T06:32:57.816Z,71.83
2023-01-29T06:36:59.508Z,72.67
2023-01-29T06:41:08.639Z,71.83
2023-01-29T06:45:10.834Z,72.61
2023-01-29T06:49:13.656Z,72.59
2023-01-29T06:53:15.293Z,72.53
2023-01-29T06:57:16.998Z,73.31
2023-01-29T07:01:34.743Z,72.87
2023-01-29T07:05:38.731Z,72.62
2023-01-29T07:09:40.760Z,72.27
2023-01-29T07:13:42.187Z,71.63
2023-01-29T07:17:43.594Z,72.01
2023-01-29T07:21:46.634Z,72.50
2023-01-29T07:25:48.080Z,72.61
2023-01-29T07:29:49.487Z,73.13
2023-01-29T07:33:50.856Z,73.50
2023-01-29T07:37:53.609Z,72.91
2023-01-29T07:41:54.987Z,73.05
2023-01-29T07:45:56.435Z,71.68
2023-01-29T07:49:57.931Z,71.90
2023-01-29T07:54:00.748Z,72.18
2023-01-29T07:58:03.471Z,72.50
2023-01-29T08:02:04.957Z,71.14
2023-01-29T08:06:06.645Z,71.04
2023-01-29T08:10:10.576Z,71.07
2023-01-29T08:14:12.064Z,72.58
2023-01-29T08:18:13.843Z,71.28
2023-01-29T08:22:15.475Z,71.02
2023-01-29T08:26:18.293Z,70.78
2023-01-29T08:30:19.749Z,70.76
2023-01-29T08:34:21.427Z,70.50
2023-01-29T08:38:23.037Z,70.00
2023-01-29T08:42:25.911Z,70.12
2023-01-29T08:46:27.321Z,69.94
2023-01-29T08:50:28.707Z,68.36
2023-01-29T08:54:30.090Z,68.89
2023-01-29T08:58:32.968Z,69.24
2023-01-29T09:02:34.646Z,69.76
2023-01-29T09:06:36.411Z,70.03
2023-01-29T09:10:37.901Z,69.56
2023-01-29T09:14:40.682Z,69.78
2023-01-29T09:18:42.301Z,70.63
2023-01-29T09:22:43.784Z,69.58
2023-01-29T09:26:45.588Z,69.78
2023-01-29T09:30:48.967Z,69.67
2023-01-29T09:34:50.458Z,67.96
2023-01-29T09:38:52.250Z,68.34
2023-01-29T09:42:57.594Z,67.26
2023-01-29T09:47:02.230Z,67.69
2023-01-29T09:51:06.568Z,68.66
2023-01-29T09:55:12.751Z,67.76
2023-01-29T09:59:17.275Z,67.47
2023-01-29T10:03:34.030Z,66.42
2023-01-29T10:07:50.321Z,66.56
2023-01-29T10:11:58.756Z,66.14
2023-01-29T10:16:08.572Z,66.49
2023-01-29T10:20:18.588Z,64.90
2023-01-29T10:24:24.099Z,65.74
2023-01-29T10:28:28.716Z,64.89
2023-01-29T10:32:30.988Z,65.55
2023-01-29T10:36:36.002Z,65.74
2023-01-29T10:40:41.212Z,66.66
2023-01-29T10:44:49.706Z,66.37
2023-01-29T10:49:00.426Z,65.73
2023-01-29T10:53:09.160Z,66.60
2023-01-29T10:57:15.133Z,66.34
2023-01-29T11:01:16.787Z,64.99
2023-01-29T11:05:20.334Z,65.57
2023-01-29T11:09:28.421Z,63.34
2023-01-29T11:13:32.064Z,64.18
2023-01-29T11:17:33.470Z,62.84
2023-01-29T11:21:50.161Z,63.40
2023-01-29T11:25:53.759Z,64.53
2023-01-29T11:29:55.738Z,64.83
2023-01-29T11:34:03.267Z,63.92
2023-01-29T11:38:09.725Z,65.89
2023-01-29T11:42:19.276Z,65.46
2023-01-29T11:46:20.885Z,65.09
2023-01-29T11:50:24.520Z,64.51
2023-01-29T11:54:28.367Z,64.58
2023-01-29T11:58:32.432Z,63.97
2023-01-29T12:02:36.250Z,63.99
2023-01-29T12:06:41.434Z,64.85
2023-01-29T12:10:43.737Z,63.48
2023-01-29T12:14:46.755Z,63.61
2023-01-29T12:18:51.626Z,64.15
2023-01-29T12:22:57.961Z,62.36
2023-01-29T12:27:05.421Z,62.04
2023-01-29T12:31:15.739Z,63.08
2023-01-29T12:35:20.389Z,63.53
2023-01-29T12:39:22.327Z,63.59
2023-01-29T12:43:27.496Z,63.28
2023-01-29T12:47:33.463Z,63.77
2023-01-29T12:51:38.686Z,64.30
2023-01-29T12:55:42.267Z,63.39
2023-01-29T12:59:47.333Z,63.49
2023-01-29T13:03:53.587Z,63.69
2023-01-29T13:07:58.013Z,63.70
2023-01-29T13:12:02.103Z,63.97
2023-01-29T13:16:07.752Z,63.65
2023-01-29T13:20:13.264Z,63.91
2023-01-29T13:24:16.288Z,64.50
2023-01-29T13:28:18.436Z,63.88
2023-01-29T13:32:21.548Z,64.00
2023-01-29T13:36:26.615Z,64.34
2023-01-29T13:40:30.405Z,62.91
2023-01-29T13:44:33.569Z,63.84
2023-01-29T13:48:41.495Z,64.47
2023-01-29T13:52:45.880Z,64.23
2023-01-29T13:56:57.240Z,64.06
2023-01-29T14:00:59.070Z,63.85
2023-01-29T14:05:24.632Z,64.45
2023-01-29T14:09:34.670Z,65.65
2023-01-29T14:13:36.172Z,64.73
2023-01-29T14:17:38.166Z,65.33
2023-01-29T14:21:40.515Z,64.82
2023-01-29T14:25:43.433Z,65.06
2023-01-29T14:29:45.183Z,65.02
2023-01-29T14:33:46.643Z,65.64
2023-01-29T14:37:50.128Z,65.56
2023-01-29T14:41:53.294Z,66.18
2023-01-29T14:45:54.814Z,66.13
2023-01-29T14:49:57.133Z,66.49
2023-01-29T14:54:01.484Z,66.41
2023-01-29T14:58:04.785Z,66.26
2023-01-29T15:02:14.289Z,66.85
2023-01-29T15:06:17.985Z,66.81
2023-01-29T15:10:23.177Z,67.10
2023-01-29T15:14:31.571Z,67.61
2023-01-29T15:18:35.017Z,67.91
2023-01-29T15:22:42.947Z,68.50
2023-01-29T15:26:44.438Z,68.81
2023-01-29T15:30:51.961Z,69.11
2023-01-29T15:34:54.300Z,68.44
2023-01-29T15:39:07.314Z,69.51
2023-01-29T15:43:19.568Z,69.35
2023-01-29T15:47:24.400Z,70.00
2023-01-29T15:51:27.373Z,70.31
2023-01-29T15:55:30.561Z,70.51
2023-01-29T15:59:34.192Z,70.41
2023-01-29T16:03:37.342Z,71.32
2023-01-29T16:07:39.070Z,71.58
2023-01-29T16:11:40.642Z,72.93
2023-01-29T16:15:54.069Z,72.81
2023-01-29T16:19:57.794Z,73.50
2023-01-29T16:24:00.864Z,73.19
2023-01-29T16:28:04.087Z,73.78
2023-01-29T16:32:05.746Z,74.54
2023-01-29T16:36:13.896Z,75.42
2023-01-29T16:40:16.434Z,76.08
2023-01-29T16:44:31.305Z,76.01
2023-01-29T16:48:33.830Z,76.16
2023-01-29T16:52:36.787Z,76.31
2023-01-29T16:56:38.967Z,76.64
2023-01-29T17:00:44.369Z,77.33
2023-01-29T17:04:46.107Z,77.61
2023-01-29T17:08:49.376Z,78.06
2023-01-29T17:12:54.395Z,77.37
2023-01-29T17:16:56.907Z,77.72
2023-01-29T17:20:58.492Z,77.83
2023-01-29T17:25:01.271Z,77.58
2023-01-29T17:29:02.685Z,77.68
2023-01-29T17:33:11.001Z,78.18
2023-01-29T17:37:13.346Z,79.01
2023-01-29T17:41:19.720Z,78.80
2023-01-29T17:45:21.319Z,78.67
2023-01-29T17:49:23.736Z,78.97
2023-01-29T17:53:30.567Z,78.60
2023-01-29T17:57:39.457Z,78.65
2023-01-29T18:01:40.865Z,79.11
2023-01-29T18:05:42.827Z,79.50
2023-01-29T18:09:44.475Z,79.83
2023-01-29T18:13:47.561Z,80.31
2023-01-29T18:17:49.172Z,80.62
2023-01-29T18:21:50.912Z,80.47
2023-01-29T18:25:52.671Z,80.54
2023-01-29T18:29:55.601Z,80.66
2023-01-29T18:33:57.110Z,80.85
2023-01-29T18:37:58.476Z,81.01
2023-01-29T18:41:59.859Z,81.17
2023-01-29T18:46:03.110Z,80.45
2023-01-29T18:50:05.249Z,79.48
2023-01-29T18:54:06.644Z,80.09
2023-01-29T18:58:26.248Z,79.91
2023-01-29T19:02:31.315Z,80.22
2023-01-29T19:06:33.133Z,80.49
2023-01-29T19:10:34.611Z,80.55
2023-01-29T19:14:36.032Z,80.40
2023-01-29T19:18:39.255Z,81.91
2023-01-29T19:22:41.020Z,82.21
2023-01-29T19:26:42.621Z,82.33
2023-01-29T19:30:44.043Z,81.98
2023-01-29T19:34:47.057Z,82.14
2023-01-29T19:38:48.585Z,82.01
2023-01-29T19:42:53.411Z,82.67
2023-01-29T19:46:55.129Z,82.29
2023-01-29T19:50:58.907Z,82.11
2023-01-29T19:55:00.409Z,81.92
2023-01-29T19:59:01.841Z,81.57
2023-01-29T20:03:03.306Z,81.55
2023-01-29T20:07:06.295Z,81.75
2023-01-29T20:11:08.009Z,82.23
2023-01-29T20:15:09.688Z,81.69
2023-01-29T20:19:13.196Z,80.68
2023-01-29T20:23:27.986Z,80.50
2023-01-29T20:27:36.926Z,79.90
2023-01-29T20:31:38.578Z,78.97
2023-01-29T20:35:40.228Z,78.71
2023-01-29T20:39:43.145Z,79.02
2023-01-29T20:43:44.898Z,78.87
2023-01-29T20:47:46.327Z,79.32
2023-01-29T20:51:47.759Z,80.38
2023-01-29T20:55:50.759Z,80.52
2023-01-29T20:59:52.314Z,80.51
2023-01-29T21:03:53.773Z,79.67
2023-01-29T21:07:55.311Z,80.59
2023-01-29T21:11:58.362Z,80.71
2023-01-29T21:15:59.967Z,81.15
2023-01-29T21:20:01.474Z,81.42
2023-01-29T21:24:03.056Z,81.58
2023-01-29T21:28:06.025Z,81.80
2023-01-29T21:32:07.466Z,82.39
2023-01-29T21:36:09.326Z,82.54
2023-01-29T21:40:11.431Z,82.16
2023-01-29T21:44:14.373Z,82.04
2023-01-29T21:48:15.812Z,81.58
2023-01-29T21:52:17.559Z,82.31
2023-01-29T21:56:19.176Z,82.54
2023-01-29T22:00:22.285Z,82.74
2023-01-29T22:04:24.095Z,83.28
2023-01-29T22:08:25.647Z,83.32
2023-01-29T22:12:27.199Z,83.96
2023-01-29T22:16:30.046Z,83.50
2023-01-29T22:20:31.545Z,84.06
2023-01-29T22:24:32.965Z,84.46
2023-01-29T22:28:34.475Z,83.77
2023-01-29T22:32:37.573Z,83.85
2023-01-29T22:36:39.075Z,83.30
2023-01-29T22:40:40.620Z,83.41
2023-01-29T22:44:42.077Z,83.23
2023-01-29T22:48:44.889Z,83.13
2023-01-29T22:52:46.286Z,83.15
2023-01-29T22:56:47.696Z,82.59
2023-01-29T23:00:50.054Z,82.34
2023-01-29T23:04:52.854Z,82.91
2023-01-29T23:08:54.265Z,83.02
2023-01-29T23:12:55.632Z,83.94
2023-01-29T23:16:56.984Z,83.60
2023-01-29T23:20:59.815Z,83.47
2023-01-29T23:25:01.563Z,83.71
2023-01-29T23:29:03.444Z,83.85
2023-01-29T23:33:05.049Z,84.20
2023-01-29T23:37:08.196Z,84.28
2023-01-29T23:41:09.642Z,84.61
2023-01-29T23:45:11.217Z,84.75
2023-01-29T23:49:12.799Z,84.17
2023-01-29T23:53:16.093Z,83.54
2023-01-29T23:57:17.544Z,83.89
